sensor_id;sensor_type;location;lat;lon;timestamp;P1;durP1;ratioP1;P2;durP2;ratioP2
65469;SDS011;52067;50.710;14.492;2023-12-20T00:01:00;17.48;;;9.38;;
65469;SDS011;52067;50.710;14.492;2023-12-20T00:03:26;18.48;;;9.80;;
65469;SDS011;52067;50.710;14.492;2023-12-20T00:05:51;23.95;;;13.40;;
65469;SDS011;52067;50.710;14.492;2023-12-20T00:08:16;32.90;;;16.48;;
65469;SDS011;52067;50.710;14.492;2023-12-20T00:10:43;28.17;;;14.18;;
65469;SDS011;52067;50.710;14.492;2023-12-20T00:13:08;34.17;;;16.50;;
65469;SDS011;52067;50.710;14.492;2023-12-20T00:15:34;26.85;;;14.05;;
65469;SDS011;52067;50.710;14.492;2023-12-20T00:17:59;28.08;;;13.80;;
65469;SDS011;52067;50.710;14.492;2023-12-20T00:20:25;30.13;;;13.80;;
65469;SDS011;52067;50.710;14.492;2023-12-20T00:22:51;18.58;;;10.13;;
65469;SDS011;52067;50.710;14.492;2023-12-20T00:25:16;16.42;;;9.48;;
65469;SDS011;52067;50.710;14.492;2023-12-20T00:27:42;16.98;;;9.82;;
65469;SDS011;52067;50.710;14.492;2023-12-20T00:30:08;17.20;;;9.77;;
65469;SDS011;52067;50.710;14.492;2023-12-20T00:32:35;17.77;;;9.35;;
65469;SDS011;52067;50.710;14.492;2023-12-20T00:35:01;19.60;;;9.63;;
65469;SDS011;52067;50.710;14.492;2023-12-20T00:37:26;16.15;;;10.38;;
65469;SDS011;52067;50.710;14.492;2023-12-20T00:39:52;16.65;;;10.05;;
65469;SDS011;52067;50.710;14.492;2023-12-20T00:42:17;18.85;;;9.88;;
65469;SDS011;52067;50.710;14.492;2023-12-20T00:44:42;19.55;;;10.60;;
65469;SDS011;52067;50.710;14.492;2023-12-20T00:47:08;17.80;;;10.80;;
65469;SDS011;52067;50.710;14.492;2023-12-20T00:49:33;18.63;;;10.77;;
65469;SDS011;52067;50.710;14.492;2023-12-20T00:51:58;20.10;;;11.13;;
65469;SDS011;52067;50.710;14.492;2023-12-20T00:54:24;19.45;;;10.60;;
65469;SDS011;52067;50.710;14.492;2023-12-20T00:56:49;17.73;;;10.68;;
65469;SDS011;52067;50.710;14.492;2023-12-20T00:59:16;18.85;;;10.32;;
65469;SDS011;52067;50.710;14.492;2023-12-20T01:01:42;18.55;;;10.85;;
65469;SDS011;52067;50.710;14.492;2023-12-20T01:04:08;20.00;;;11.60;;
65469;SDS011;52067;50.710;14.492;2023-12-20T01:06:33;24.15;;;13.43;;
65469;SDS011;52067;50.710;14.492;2023-12-20T01:08:59;24.30;;;13.30;;
65469;SDS011;52067;50.710;14.492;2023-12-20T01:11:24;21.85;;;12.48;;
65469;SDS011;52067;50.710;14.492;2023-12-20T01:13:49;22.38;;;12.68;;
65469;SDS011;52067;50.710;14.492;2023-12-20T01:16:15;23.27;;;13.10;;
65469;SDS011;52067;50.710;14.492;2023-12-20T01:18:40;23.88;;;12.35;;
65469;SDS011;52067;50.710;14.492;2023-12-20T01:21:06;17.15;;;9.43;;
65469;SDS011;52067;50.710;14.492;2023-12-20T01:23:31;14.18;;;8.30;;
65469;SDS011;52067;50.710;14.492;2023-12-20T01:25:57;15.90;;;9.43;;
65469;SDS011;52067;50.710;14.492;2023-12-20T01:28:24;17.23;;;9.90;;
65469;SDS011;52067;50.710;14.492;2023-12-20T01:30:50;16.98;;;9.85;;
65469;SDS011;52067;50.710;14.492;2023-12-20T01:33:15;17.50;;;10.45;;
65469;SDS011;52067;50.710;14.492;2023-12-20T01:35:41;22.05;;;12.50;;
65469;SDS011;52067;50.710;14.492;2023-12-20T01:38:06;26.65;;;12.85;;
65469;SDS011;52067;50.710;14.492;2023-12-20T01:40:32;27.60;;;13.25;;
65469;SDS011;52067;50.710;14.492;2023-12-20T01:42:58;23.65;;;12.88;;
65469;SDS011;52067;50.710;14.492;2023-12-20T01:45:24;26.85;;;14.20;;
65469;SDS011;52067;50.710;14.492;2023-12-20T01:47:50;23.50;;;13.93;;
65469;SDS011;52067;50.710;14.492;2023-12-20T01:50:15;28.00;;;14.43;;
65469;SDS011;52067;50.710;14.492;2023-12-20T01:52:42;25.27;;;14.40;;
65469;SDS011;52067;50.710;14.492;2023-12-20T01:55:08;26.42;;;14.23;;
65469;SDS011;52067;50.710;14.492;2023-12-20T01:57:39;25.23;;;14.82;;
65469;SDS011;52067;50.710;14.492;2023-12-20T02:00:06;23.13;;;13.02;;
65469;SDS011;52067;50.710;14.492;2023-12-20T02:02:31;19.45;;;11.10;;
65469;SDS011;52067;50.710;14.492;2023-12-20T02:04:58;17.67;;;10.95;;
65469;SDS011;52067;50.710;14.492;2023-12-20T02:07:23;17.33;;;10.35;;
65469;SDS011;52067;50.710;14.492;2023-12-20T02:09:50;17.23;;;10.27;;
65469;SDS011;52067;50.710;14.492;2023-12-20T02:12:15;21.70;;;12.10;;
65469;SDS011;52067;50.710;14.492;2023-12-20T02:14:40;23.25;;;12.75;;
65469;SDS011;52067;50.710;14.492;2023-12-20T02:17:06;22.67;;;13.30;;
65469;SDS011;52067;50.710;14.492;2023-12-20T02:19:31;26.38;;;14.02;;
65469;SDS011;52067;50.710;14.492;2023-12-20T02:22:09;22.73;;;12.07;;
65469;SDS011;52067;50.710;14.492;2023-12-20T02:24:35;22.80;;;12.18;;
65469;SDS011;52067;50.710;14.492;2023-12-20T02:27:00;22.25;;;11.98;;
65469;SDS011;52067;50.710;14.492;2023-12-20T02:29:26;24.35;;;11.90;;
65469;SDS011;52067;50.710;14.492;2023-12-20T02:31:52;23.83;;;12.63;;
65469;SDS011;52067;50.710;14.492;2023-12-20T02:34:17;23.45;;;12.32;;
65469;SDS011;52067;50.710;14.492;2023-12-20T02:36:44;22.10;;;12.15;;
65469;SDS011;52067;50.710;14.492;2023-12-20T02:39:09;24.50;;;12.20;;
65469;SDS011;52067;50.710;14.492;2023-12-20T02:41:35;20.23;;;12.25;;
65469;SDS011;52067;50.710;14.492;2023-12-20T02:44:01;28.15;;;13.93;;
65469;SDS011;52067;50.710;14.492;2023-12-20T02:46:27;26.77;;;12.75;;
65469;SDS011;52067;50.710;14.492;2023-12-20T02:48:52;26.35;;;12.90;;
65469;SDS011;52067;50.710;14.492;2023-12-20T02:51:18;22.58;;;12.02;;
65469;SDS011;52067;50.710;14.492;2023-12-20T02:53:43;21.02;;;11.88;;
65469;SDS011;52067;50.710;14.492;2023-12-20T02:56:08;24.98;;;13.50;;
65469;SDS011;52067;50.710;14.492;2023-12-20T02:58:34;27.08;;;13.38;;
65469;SDS011;52067;50.710;14.492;2023-12-20T03:00:59;25.95;;;14.52;;
65469;SDS011;52067;50.710;14.492;2023-12-20T03:03:25;26.15;;;12.95;;
65469;SDS011;52067;50.710;14.492;2023-12-20T03:05:50;22.80;;;12.40;;
65469;SDS011;52067;50.710;14.492;2023-12-20T03:08:16;25.63;;;12.32;;
65469;SDS011;52067;50.710;14.492;2023-12-20T03:10:42;23.58;;;12.65;;
65469;SDS011;52067;50.710;14.492;2023-12-20T03:13:07;24.70;;;13.77;;
65469;SDS011;52067;50.710;14.492;2023-12-20T03:15:32;22.00;;;12.27;;
65469;SDS011;52067;50.710;14.492;2023-12-20T03:17:58;26.98;;;12.80;;
65469;SDS011;52067;50.710;14.492;2023-12-20T03:20:24;24.33;;;12.85;;
65469;SDS011;52067;50.710;14.492;2023-12-20T03:22:51;22.98;;;12.77;;
65469;SDS011;52067;50.710;14.492;2023-12-20T03:25:16;22.00;;;12.68;;
65469;SDS011;52067;50.710;14.492;2023-12-20T03:27:42;24.10;;;12.77;;
65469;SDS011;52067;50.710;14.492;2023-12-20T03:30:07;23.77;;;12.10;;
65469;SDS011;52067;50.710;14.492;2023-12-20T03:32:33;27.60;;;12.30;;
65469;SDS011;52067;50.710;14.492;2023-12-20T03:34:58;22.65;;;12.27;;
65469;SDS011;52067;50.710;14.492;2023-12-20T03:37:24;21.90;;;12.43;;
65469;SDS011;52067;50.710;14.492;2023-12-20T03:39:49;25.83;;;12.80;;
65469;SDS011;52067;50.710;14.492;2023-12-20T03:42:15;23.15;;;12.43;;
65469;SDS011;52067;50.710;14.492;2023-12-20T03:44:40;21.23;;;12.25;;
65469;SDS011;52067;50.710;14.492;2023-12-20T03:47:06;22.60;;;11.55;;
65469;SDS011;52067;50.710;14.492;2023-12-20T03:49:31;22.15;;;11.45;;
65469;SDS011;52067;50.710;14.492;2023-12-20T03:51:57;22.27;;;11.82;;
65469;SDS011;52067;50.710;14.492;2023-12-20T03:54:22;21.88;;;11.45;;
65469;SDS011;52067;50.710;14.492;2023-12-20T03:56:47;25.27;;;12.02;;
65469;SDS011;52067;50.710;14.492;2023-12-20T03:59:13;20.85;;;11.55;;
65469;SDS011;52067;50.710;14.492;2023-12-20T04:01:42;20.77;;;11.60;;
65469;SDS011;52067;50.710;14.492;2023-12-20T04:04:09;24.77;;;12.90;;
65469;SDS011;52067;50.710;14.492;2023-12-20T04:06:35;22.50;;;13.18;;
65469;SDS011;52067;50.710;14.492;2023-12-20T04:09:00;23.83;;;13.45;;
65469;SDS011;52067;50.710;14.492;2023-12-20T04:11:26;26.35;;;14.68;;
65469;SDS011;52067;50.710;14.492;2023-12-20T04:13:51;28.52;;;15.30;;
65469;SDS011;52067;50.710;14.492;2023-12-20T04:16:17;31.52;;;16.10;;
65469;SDS011;52067;50.710;14.492;2023-12-20T04:18:42;29.77;;;14.90;;
65469;SDS011;52067;50.710;14.492;2023-12-20T04:21:07;26.85;;;14.32;;
65469;SDS011;52067;50.710;14.492;2023-12-20T04:23:33;27.85;;;14.38;;
65469;SDS011;52067;50.710;14.492;2023-12-20T04:25:58;51.15;;;13.85;;
65469;SDS011;52067;50.710;14.492;2023-12-20T04:28:23;32.00;;;14.55;;
65469;SDS011;52067;50.710;14.492;2023-12-20T04:30:49;18.85;;;10.25;;
65469;SDS011;52067;50.710;14.492;2023-12-20T04:33:14;22.85;;;11.18;;
65469;SDS011;52067;50.710;14.492;2023-12-20T04:35:40;33.03;;;14.15;;
65469;SDS011;52067;50.710;14.492;2023-12-20T04:38:06;14.35;;;8.68;;
65469;SDS011;52067;50.710;14.492;2023-12-20T04:40:31;13.93;;;7.57;;
65469;SDS011;52067;50.710;14.492;2023-12-20T04:42:57;14.75;;;8.02;;
65469;SDS011;52067;50.710;14.492;2023-12-20T04:45:22;17.30;;;7.70;;
65469;SDS011;52067;50.710;14.492;2023-12-20T04:47:49;13.40;;;7.07;;
65469;SDS011;52067;50.710;14.492;2023-12-20T04:50:15;15.23;;;8.07;;
65469;SDS011;52067;50.710;14.492;2023-12-20T04:52:41;13.00;;;6.90;;
65469;SDS011;52067;50.710;14.492;2023-12-20T04:55:07;10.95;;;6.07;;
65469;SDS011;52067;50.710;14.492;2023-12-20T04:57:33;11.95;;;6.68;;
65469;SDS011;52067;50.710;14.492;2023-12-20T04:59:59;13.35;;;7.00;;
65469;SDS011;52067;50.710;14.492;2023-12-20T05:02:24;12.57;;;6.53;;
65469;SDS011;52067;50.710;14.492;2023-12-20T05:04:50;10.18;;;6.07;;
65469;SDS011;52067;50.710;14.492;2023-12-20T05:07:15;10.05;;;5.90;;
65469;SDS011;52067;50.710;14.492;2023-12-20T05:09:41;9.98;;;5.40;;
65469;SDS011;52067;50.710;14.492;2023-12-20T05:12:06;9.10;;;4.97;;
65469;SDS011;52067;50.710;14.492;2023-12-20T05:14:32;13.57;;;5.50;;
65469;SDS011;52067;50.710;14.492;2023-12-20T05:16:57;7.80;;;4.47;;
65469;SDS011;52067;50.710;14.492;2023-12-20T05:19:23;6.65;;;4.20;;
65469;SDS011;52067;50.710;14.492;2023-12-20T05:21:49;7.88;;;4.18;;
65469;SDS011;52067;50.710;14.492;2023-12-20T05:24:15;8.07;;;4.50;;
65469;SDS011;52067;50.710;14.492;2023-12-20T05:26:40;10.82;;;4.97;;
65469;SDS011;52067;50.710;14.492;2023-12-20T05:29:06;6.60;;;4.00;;
65469;SDS011;52067;50.710;14.492;2023-12-20T05:31:31;6.68;;;3.70;;
65469;SDS011;52067;50.710;14.492;2023-12-20T05:33:56;7.35;;;3.88;;
65469;SDS011;52067;50.710;14.492;2023-12-20T05:36:22;6.15;;;3.70;;
65469;SDS011;52067;50.710;14.492;2023-12-20T05:38:47;5.35;;;3.45;;
65469;SDS011;52067;50.710;14.492;2023-12-20T05:41:13;6.57;;;3.72;;
65469;SDS011;52067;50.710;14.492;2023-12-20T05:43:38;5.65;;;3.55;;
65469;SDS011;52067;50.710;14.492;2023-12-20T05:46:04;7.57;;;3.40;;
65469;SDS011;52067;50.710;14.492;2023-12-20T05:48:30;6.60;;;3.10;;
65469;SDS011;52067;50.710;14.492;2023-12-20T05:50:55;7.07;;;3.50;;
65469;SDS011;52067;50.710;14.492;2023-12-20T05:53:21;6.55;;;3.45;;
65469;SDS011;52067;50.710;14.492;2023-12-20T05:55:46;5.65;;;2.95;;
65469;SDS011;52067;50.710;14.492;2023-12-20T05:58:12;4.82;;;3.03;;
65469;SDS011;52067;50.710;14.492;2023-12-20T06:00:37;5.78;;;3.25;;
65469;SDS011;52067;50.710;14.492;2023-12-20T06:03:03;6.40;;;3.38;;
65469;SDS011;52067;50.710;14.492;2023-12-20T06:05:30;7.30;;;3.33;;
65469;SDS011;52067;50.710;14.492;2023-12-20T06:07:55;7.95;;;3.33;;
65469;SDS011;52067;50.710;14.492;2023-12-20T06:10:26;5.55;;;3.28;;
65469;SDS011;52067;50.710;14.492;2023-12-20T06:12:51;8.98;;;4.13;;
65469;SDS011;52067;50.710;14.492;2023-12-20T06:15:17;7.18;;;3.92;;
65469;SDS011;52067;50.710;14.492;2023-12-20T06:17:42;9.77;;;4.88;;
65469;SDS011;52067;50.710;14.492;2023-12-20T06:20:08;7.65;;;4.47;;
65469;SDS011;52067;50.710;14.492;2023-12-20T06:22:35;10.90;;;4.10;;
65469;SDS011;52067;50.710;14.492;2023-12-20T06:25:01;7.75;;;4.25;;
65469;SDS011;52067;50.710;14.492;2023-12-20T06:27:27;12.52;;;5.75;;
65469;SDS011;52067;50.710;14.492;2023-12-20T06:29:53;9.02;;;4.25;;
65469;SDS011;52067;50.710;14.492;2023-12-20T06:32:19;6.43;;;3.55;;
65469;SDS011;52067;50.710;14.492;2023-12-20T06:34:44;8.30;;;4.78;;
65469;SDS011;52067;50.710;14.492;2023-12-20T06:37:09;12.25;;;5.72;;
65469;SDS011;52067;50.710;14.492;2023-12-20T06:39:35;16.67;;;7.88;;
65469;SDS011;52067;50.710;14.492;2023-12-20T06:42:00;25.13;;;12.98;;
65469;SDS011;52067;50.710;14.492;2023-12-20T06:44:26;32.05;;;15.00;;
65469;SDS011;52067;50.710;14.492;2023-12-20T06:46:51;19.80;;;9.40;;
65469;SDS011;52067;50.710;14.492;2023-12-20T06:49:17;16.05;;;7.72;;
65469;SDS011;52067;50.710;14.492;2023-12-20T06:51:43;4.93;;;2.83;;
65469;SDS011;52067;50.710;14.492;2023-12-20T06:54:08;4.47;;;2.83;;
65469;SDS011;52067;50.710;14.492;2023-12-20T06:56:34;7.78;;;4.40;;
65469;SDS011;52067;50.710;14.492;2023-12-20T06:58:59;13.88;;;7.03;;
65469;SDS011;52067;50.710;14.492;2023-12-20T07:01:25;22.13;;;9.00;;
65469;SDS011;52067;50.710;14.492;2023-12-20T07:03:50;10.73;;;5.78;;
65469;SDS011;52067;50.710;14.492;2023-12-20T07:06:15;16.73;;;6.93;;
65469;SDS011;52067;50.710;14.492;2023-12-20T07:08:42;4.85;;;3.03;;
65469;SDS011;52067;50.710;14.492;2023-12-20T07:11:07;6.57;;;2.90;;
65469;SDS011;52067;50.710;14.492;2023-12-20T07:13:33;5.05;;;3.05;;
65469;SDS011;52067;50.710;14.492;2023-12-20T07:15:59;5.93;;;3.25;;
65469;SDS011;52067;50.710;14.492;2023-12-20T07:18:24;5.80;;;3.00;;
65469;SDS011;52067;50.710;14.492;2023-12-20T07:20:50;6.63;;;3.30;;
65469;SDS011;52067;50.710;14.492;2023-12-20T07:23:15;5.75;;;3.08;;
65469;SDS011;52067;50.710;14.492;2023-12-20T07:25:40;6.03;;;3.05;;
65469;SDS011;52067;50.710;14.492;2023-12-20T07:28:06;4.95;;;2.20;;
65469;SDS011;52067;50.710;14.492;2023-12-20T07:30:31;2.45;;;1.23;;
65469;SDS011;52067;50.710;14.492;2023-12-20T07:32:57;1.75;;;1.17;;
65469;SDS011;52067;50.710;14.492;2023-12-20T07:35:25;2.17;;;1.30;;
65469;SDS011;52067;50.710;14.492;2023-12-20T07:37:50;2.42;;;1.27;;
65469;SDS011;52067;50.710;14.492;2023-12-20T07:40:16;1.65;;;1.15;;
65469;SDS011;52067;50.710;14.492;2023-12-20T07:42:44;1.67;;;1.10;;
65469;SDS011;52067;50.710;14.492;2023-12-20T07:45:09;1.70;;;1.10;;
65469;SDS011;52067;50.710;14.492;2023-12-20T07:47:36;1.33;;;1.10;;
65469;SDS011;52067;50.710;14.492;2023-12-20T07:50:01;1.23;;;1.00;;
65469;SDS011;52067;50.710;14.492;2023-12-20T07:52:27;2.55;;;0.95;;
65469;SDS011;52067;50.710;14.492;2023-12-20T07:54:54;1.48;;;1.17;;
65469;SDS011;52067;50.710;14.492;2023-12-20T07:57:19;2.22;;;1.20;;
65469;SDS011;52067;50.710;14.492;2023-12-20T07:59:45;1.63;;;0.90;;
65469;SDS011;52067;50.710;14.492;2023-12-20T08:02:10;2.00;;;1.20;;
65469;SDS011;52067;50.710;14.492;2023-12-20T08:04:35;1.50;;;1.10;;
65469;SDS011;52067;50.710;14.492;2023-12-20T08:07:01;3.45;;;1.10;;
65469;SDS011;52067;50.710;14.492;2023-12-20T08:09:27;2.47;;;1.13;;
65469;SDS011;52067;50.710;14.492;2023-12-20T08:11:52;3.38;;;1.80;;
65469;SDS011;52067;50.710;14.492;2023-12-20T08:14:17;2.20;;;1.30;;
65469;SDS011;52067;50.710;14.492;2023-12-20T08:16:43;2.55;;;1.52;;
65469;SDS011;52067;50.710;14.492;2023-12-20T08:19:08;1.63;;;1.00;;
65469;SDS011;52067;50.710;14.492;2023-12-20T08:21:34;1.48;;;1.17;;
65469;SDS011;52067;50.710;14.492;2023-12-20T08:23:59;2.55;;;1.13;;
65469;SDS011;52067;50.710;14.492;2023-12-20T08:26:25;2.08;;;1.30;;
65469;SDS011;52067;50.710;14.492;2023-12-20T08:28:51;2.38;;;1.33;;
65469;SDS011;52067;50.710;14.492;2023-12-20T08:31:16;2.63;;;1.20;;
65469;SDS011;52067;50.710;14.492;2023-12-20T08:33:46;1.73;;;1.30;;
65469;SDS011;52067;50.710;14.492;2023-12-20T08:36:13;2.35;;;1.27;;
65469;SDS011;52067;50.710;14.492;2023-12-20T08:38:38;1.92;;;1.20;;
65469;SDS011;52067;50.710;14.492;2023-12-20T08:41:04;2.22;;;1.30;;
65469;SDS011;52067;50.710;14.492;2023-12-20T08:43:35;2.22;;;1.30;;
65469;SDS011;52067;50.710;14.492;2023-12-20T08:46:01;2.03;;;1.40;;
65469;SDS011;52067;50.710;14.492;2023-12-20T08:48:27;2.83;;;1.55;;
65469;SDS011;52067;50.710;14.492;2023-12-20T08:50:53;2.83;;;1.38;;
65469;SDS011;52067;50.710;14.492;2023-12-20T08:53:18;3.58;;;1.45;;
65469;SDS011;52067;50.710;14.492;2023-12-20T08:55:44;1.75;;;1.40;;
65469;SDS011;52067;50.710;14.492;2023-12-20T08:58:10;2.75;;;1.40;;
65469;SDS011;52067;50.710;14.492;2023-12-20T09:00:36;2.35;;;1.55;;
65469;SDS011;52067;50.710;14.492;2023-12-20T09:03:01;1.55;;;1.27;;
65469;SDS011;52067;50.710;14.492;2023-12-20T09:05:27;2.08;;;1.40;;
65469;SDS011;52067;50.710;14.492;2023-12-20T09:07:53;2.83;;;1.50;;
65469;SDS011;52067;50.710;14.492;2023-12-20T09:10:19;2.47;;;1.40;;
65469;SDS011;52067;50.710;14.492;2023-12-20T09:12:50;2.15;;;1.27;;
65469;SDS011;52067;50.710;14.492;2023-12-20T09:15:16;2.22;;;1.50;;
65469;SDS011;52067;50.710;14.492;2023-12-20T09:17:41;2.63;;;1.50;;
65469;SDS011;52067;50.710;14.492;2023-12-20T09:20:08;5.60;;;1.58;;
65469;SDS011;52067;50.710;14.492;2023-12-20T09:22:34;2.28;;;1.35;;
65469;SDS011;52067;50.710;14.492;2023-12-20T09:25:00;2.17;;;1.45;;
65469;SDS011;52067;50.710;14.492;2023-12-20T09:27:26;3.28;;;1.67;;
65469;SDS011;52067;50.710;14.492;2023-12-20T09:29:52;3.78;;;1.50;;
65469;SDS011;52067;50.710;14.492;2023-12-20T09:32:18;2.53;;;1.60;;
65469;SDS011;52067;50.710;14.492;2023-12-20T09:34:45;3.13;;;1.40;;
65469;SDS011;52067;50.710;14.492;2023-12-20T09:37:11;3.10;;;1.45;;
65469;SDS011;52067;50.710;14.492;2023-12-20T09:39:36;2.65;;;1.50;;
65469;SDS011;52067;50.710;14.492;2023-12-20T09:44:28;3.15;;;1.70;;
65469;SDS011;52067;50.710;14.492;2023-12-20T09:46:54;7.30;;;1.95;;
65469;SDS011;52067;50.710;14.492;2023-12-20T09:49:21;2.90;;;1.60;;
65469;SDS011;52067;50.710;14.492;2023-12-20T09:51:47;5.05;;;1.70;;
65469;SDS011;52067;50.710;14.492;2023-12-20T09:54:15;3.40;;;1.95;;
65469;SDS011;52067;50.710;14.492;2023-12-20T09:56:41;3.55;;;1.50;;
65469;SDS011;52067;50.710;14.492;2023-12-20T09:59:07;3.50;;;1.60;;
65469;SDS011;52067;50.710;14.492;2023-12-20T10:01:32;4.10;;;1.50;;
65469;SDS011;52067;50.710;14.492;2023-12-20T10:03:59;2.25;;;1.15;;
65469;SDS011;52067;50.710;14.492;2023-12-20T10:06:25;4.95;;;1.67;;
65469;SDS011;52067;50.710;14.492;2023-12-20T10:08:50;2.88;;;1.40;;
65469;SDS011;52067;50.710;14.492;2023-12-20T10:11:16;2.60;;;1.20;;
65469;SDS011;52067;50.710;14.492;2023-12-20T10:13:42;2.70;;;1.63;;
65469;SDS011;52067;50.710;14.492;2023-12-20T10:16:08;7.35;;;1.38;;
65469;SDS011;52067;50.710;14.492;2023-12-20T10:18:34;3.75;;;1.55;;
65469;SDS011;52067;50.710;14.492;2023-12-20T10:21:00;1.50;;;1.13;;
65469;SDS011;52067;50.710;14.492;2023-12-20T10:23:25;4.18;;;1.35;;
65469;SDS011;52067;50.710;14.492;2023-12-20T10:25:57;2.55;;;1.45;;
65469;SDS011;52067;50.710;14.492;2023-12-20T10:28:23;1.45;;;0.90;;
65469;SDS011;52067;50.710;14.492;2023-12-20T10:30:52;1.48;;;1.05;;
65469;SDS011;52067;50.710;14.492;2023-12-20T10:33:28;3.63;;;1.40;;
65469;SDS011;52067;50.710;14.492;2023-12-20T10:35:57;3.08;;;1.10;;
65469;SDS011;52067;50.710;14.492;2023-12-20T10:38:22;2.17;;;1.23;;
65469;SDS011;52067;50.710;14.492;2023-12-20T10:40:49;2.88;;;1.55;;
65469;SDS011;52067;50.710;14.492;2023-12-20T10:43:19;3.03;;;1.60;;
65469;SDS011;52067;50.710;14.492;2023-12-20T10:45:45;1.55;;;1.30;;
65469;SDS011;52067;50.710;14.492;2023-12-20T10:48:11;2.40;;;1.50;;
65469;SDS011;52067;50.710;14.492;2023-12-20T10:50:39;2.40;;;1.48;;
65469;SDS011;52067;50.710;14.492;2023-12-20T10:53:06;2.20;;;1.50;;
65469;SDS011;52067;50.710;14.492;2023-12-20T10:55:31;3.15;;;1.48;;
65469;SDS011;52067;50.710;14.492;2023-12-20T10:58:01;3.50;;;1.60;;
65469;SDS011;52067;50.710;14.492;2023-12-20T11:00:33;3.03;;;1.50;;
65469;SDS011;52067;50.710;14.492;2023-12-20T11:03:04;4.22;;;1.60;;
65469;SDS011;52067;50.710;14.492;2023-12-20T11:11:35;5.65;;;1.50;;
65469;SDS011;52067;50.710;14.492;2023-12-20T11:14:12;3.28;;;1.40;;
65469;SDS011;52067;50.710;14.492;2023-12-20T11:19:11;3.88;;;1.33;;
65469;SDS011;52067;50.710;14.492;2023-12-20T11:21:39;4.60;;;1.60;;
65469;SDS011;52067;50.710;14.492;2023-12-20T11:24:05;3.30;;;1.42;;
65469;SDS011;52067;50.710;14.492;2023-12-20T11:26:30;5.00;;;1.90;;
65469;SDS011;52067;50.710;14.492;2023-12-20T11:32:01;4.43;;;1.60;;
65469;SDS011;52067;50.710;14.492;2023-12-20T11:34:28;3.35;;;1.50;;
65469;SDS011;52067;50.710;14.492;2023-12-20T11:36:59;4.15;;;1.35;;
65469;SDS011;52067;50.710;14.492;2023-12-20T11:39:26;3.67;;;1.42;;
65469;SDS011;52067;50.710;14.492;2023-12-20T11:41:55;3.00;;;1.50;;
65469;SDS011;52067;50.710;14.492;2023-12-20T11:44:22;2.85;;;1.10;;
65469;SDS011;52067;50.710;14.492;2023-12-20T11:46:48;3.17;;;1.52;;
65469;SDS011;52067;50.710;14.492;2023-12-20T11:49:13;7.15;;;1.52;;
65469;SDS011;52067;50.710;14.492;2023-12-20T11:51:42;2.70;;;1.38;;
65469;SDS011;52067;50.710;14.492;2023-12-20T11:54:08;4.22;;;1.40;;
65469;SDS011;52067;50.710;14.492;2023-12-20T11:56:36;1.48;;;1.10;;
65469;SDS011;52067;50.710;14.492;2023-12-20T11:59:01;7.20;;;1.48;;
65469;SDS011;52067;50.710;14.492;2023-12-20T12:01:27;4.50;;;1.42;;
65469;SDS011;52067;50.710;14.492;2023-12-20T12:04:02;4.57;;;1.40;;
65469;SDS011;52067;50.710;14.492;2023-12-20T12:06:28;2.75;;;1.17;;
65469;SDS011;52067;50.710;14.492;2023-12-20T12:08:54;3.50;;;1.60;;
65469;SDS011;52067;50.710;14.492;2023-12-20T12:11:20;3.42;;;1.45;;
65469;SDS011;52067;50.710;14.492;2023-12-20T12:13:46;4.20;;;1.40;;
65469;SDS011;52067;50.710;14.492;2023-12-20T12:16:11;3.13;;;1.35;;
65469;SDS011;52067;50.710;14.492;2023-12-20T12:18:37;2.13;;;1.25;;
65469;SDS011;52067;50.710;14.492;2023-12-20T12:21:02;5.22;;;1.60;;
65469;SDS011;52067;50.710;14.492;2023-12-20T12:23:28;2.45;;;1.20;;
65469;SDS011;52067;50.710;14.492;2023-12-20T12:25:53;3.17;;;1.30;;
65469;SDS011;52067;50.710;14.492;2023-12-20T12:28:20;5.47;;;1.52;;
65469;SDS011;52067;50.710;14.492;2023-12-20T12:30:58;2.60;;;1.50;;
65469;SDS011;52067;50.710;14.492;2023-12-20T12:33:26;4.80;;;1.65;;
65469;SDS011;52067;50.710;14.492;2023-12-20T12:35:52;3.63;;;1.42;;
65469;SDS011;52067;50.710;14.492;2023-12-20T12:38:21;2.22;;;1.15;;
65469;SDS011;52067;50.710;14.492;2023-12-20T12:40:47;2.95;;;1.60;;
65469;SDS011;52067;50.710;14.492;2023-12-20T12:43:12;4.53;;;1.38;;
65469;SDS011;52067;50.710;14.492;2023-12-20T12:45:38;2.22;;;1.10;;
65469;SDS011;52067;50.710;14.492;2023-12-20T12:48:03;5.25;;;1.40;;
65469;SDS011;52067;50.710;14.492;2023-12-20T12:50:30;3.10;;;1.27;;
65469;SDS011;52067;50.710;14.492;2023-12-20T12:52:56;3.13;;;1.23;;
65469;SDS011;52067;50.710;14.492;2023-12-20T12:55:21;1.50;;;1.05;;
65469;SDS011;52067;50.710;14.492;2023-12-20T12:57:46;3.35;;;1.42;;
65469;SDS011;52067;50.710;14.492;2023-12-20T13:00:12;6.45;;;1.40;;
65469;SDS011;52067;50.710;14.492;2023-12-20T13:02:38;2.30;;;1.10;;
65469;SDS011;52067;50.710;14.492;2023-12-20T13:05:07;3.40;;;1.30;;
65469;SDS011;52067;50.710;14.492;2023-12-20T13:07:33;3.17;;;1.48;;
65469;SDS011;52067;50.710;14.492;2023-12-20T13:09:58;3.58;;;1.20;;
65469;SDS011;52067;50.710;14.492;2023-12-20T13:12:24;4.88;;;1.42;;
65469;SDS011;52067;50.710;14.492;2023-12-20T13:14:49;3.53;;;1.40;;
65469;SDS011;52067;50.710;14.492;2023-12-20T13:17:14;6.25;;;1.65;;
65469;SDS011;52067;50.710;14.492;2023-12-20T13:19:41;3.47;;;1.33;;
65469;SDS011;52067;50.710;14.492;2023-12-20T13:22:07;3.47;;;1.52;;
65469;SDS011;52067;50.710;14.492;2023-12-20T13:24:32;2.63;;;1.30;;
65469;SDS011;52067;50.710;14.492;2023-12-20T13:26:57;2.85;;;1.50;;
65469;SDS011;52067;50.710;14.492;2023-12-20T13:29:23;3.22;;;1.30;;
65469;SDS011;52067;50.710;14.492;2023-12-20T13:31:51;2.10;;;1.23;;
65469;SDS011;52067;50.710;14.492;2023-12-20T13:34:16;2.22;;;1.38;;
65469;SDS011;52067;50.710;14.492;2023-12-20T13:36:42;2.35;;;1.23;;
65469;SDS011;52067;50.710;14.492;2023-12-20T13:39:11;2.13;;;1.30;;
65469;SDS011;52067;50.710;14.492;2023-12-20T13:41:37;3.33;;;1.55;;
65469;SDS011;52067;50.710;14.492;2023-12-20T13:44:02;4.18;;;1.58;;
65469;SDS011;52067;50.710;14.492;2023-12-20T13:46:28;3.67;;;1.30;;
65469;SDS011;52067;50.710;14.492;2023-12-20T13:48:54;4.20;;;1.30;;
65469;SDS011;52067;50.710;14.492;2023-12-20T13:51:19;2.88;;;1.48;;
65469;SDS011;52067;50.710;14.492;2023-12-20T13:53:46;5.00;;;1.38;;
65469;SDS011;52067;50.710;14.492;2023-12-20T13:56:13;2.53;;;1.50;;
65469;SDS011;52067;50.710;14.492;2023-12-20T13:58:39;6.05;;;1.73;;
65469;SDS011;52067;50.710;14.492;2023-12-20T14:01:05;5.18;;;1.60;;
65469;SDS011;52067;50.710;14.492;2023-12-20T14:03:31;4.10;;;1.50;;
65469;SDS011;52067;50.710;14.492;2023-12-20T14:05:57;2.28;;;1.50;;
65469;SDS011;52067;50.710;14.492;2023-12-20T14:08:22;7.05;;;1.60;;
65469;SDS011;52067;50.710;14.492;2023-12-20T14:10:49;3.38;;;1.60;;
65469;SDS011;52067;50.710;14.492;2023-12-20T14:13:15;2.78;;;1.40;;
65469;SDS011;52067;50.710;14.492;2023-12-20T14:15:40;3.65;;;1.73;;
65469;SDS011;52067;50.710;14.492;2023-12-20T14:18:06;3.72;;;1.40;;
65469;SDS011;52067;50.710;14.492;2023-12-20T14:20:35;2.45;;;1.48;;
65469;SDS011;52067;50.710;14.492;2023-12-20T14:23:01;5.38;;;1.70;;
65469;SDS011;52067;50.710;14.492;2023-12-20T14:25:27;5.18;;;1.73;;
65469;SDS011;52067;50.710;14.492;2023-12-20T14:27:52;7.70;;;2.10;;
65469;SDS011;52067;50.710;14.492;2023-12-20T14:30:18;4.65;;;1.67;;
65469;SDS011;52067;50.710;14.492;2023-12-20T14:32:43;4.80;;;1.88;;